EJA206 KTEB-KBOS
Flight info
| Callsign | EJA206 |
|---|---|
| Flight time | N/A |
| Altitude | 17000 |
| Route | BREZY V39 CMK MERIT ROBUC3 |
| Aircraft | CL60/M-SADE3FGHIJ3J4J7P2RWXY/HB1D1 |
Departure
| Time | 2026-04-30 20:20 |
|---|---|
| Airport | Teterboro Airport (KTEB) |
Arrival
| Time | N/A |
|---|---|
| Airport | Boston Logan International Airport (KBOS) |
| Time | Latitude | Longitude | Altitude | Speed | Heading |
|---|---|---|---|---|---|
| 2026-04-30 20:03 | 40.84625 | -74.06664 | 15 ft | 0 kts | 227° |
| 2026-04-30 20:11 | 40.84610 | -74.06686 | 15 ft | 5 kts | 222° |
| 2026-04-30 20:11 | 40.84564 | -74.06710 | 15 ft | 9 kts | 182° |
| 2026-04-30 20:12 | 40.84625 | -74.06664 | 15 ft | 0 kts | 227° |
| 2026-04-30 20:15 | 40.84611 | -74.06690 | 15 ft | 6 kts | 275° |
| 2026-04-30 20:16 | 40.84648 | -74.06748 | 15 ft | 10 kts | 320° |
| 2026-04-30 20:16 | 40.84711 | -74.06756 | 15 ft | 10 kts | 51° |
| 2026-04-30 20:16 | 40.84771 | -74.06667 | 15 ft | 15 kts | 48° |
| 2026-04-30 20:16 | 40.84850 | -74.06551 | 15 ft | 18 kts | 48° |
| 2026-04-30 20:17 | 40.84945 | -74.06406 | 15 ft | 22 kts | 48° |
| 2026-04-30 20:17 | 40.85060 | -74.06242 | 15 ft | 26 kts | 48° |
| 2026-04-30 20:17 | 40.85191 | -74.06052 | 15 ft | 29 kts | 49° |
| 2026-04-30 20:17 | 40.85329 | -74.05851 | 15 ft | 22 kts | 43° |
| 2026-04-30 20:18 | 40.85437 | -74.05688 | 15 ft | 25 kts | 48° |
| 2026-04-30 20:18 | 40.85565 | -74.05501 | 15 ft | 28 kts | 48° |
| 2026-04-30 20:18 | 40.85668 | -74.05351 | 15 ft | 11 kts | 44° |
| 2026-04-30 20:18 | 40.85706 | -74.05348 | 15 ft | 0 kts | 316° |
| 2026-04-30 20:19 | 40.85722 | -74.05368 | 15 ft | 8 kts | 318° |
| 2026-04-30 20:19 | 40.85754 | -74.05422 | 15 ft | 13 kts | 277° |
| 2026-04-30 20:19 | 40.85743 | -74.05456 | 15 ft | 0 kts | 227° |
| 2026-04-30 20:20 | 40.85507 | -74.05802 | 15 ft | 108 kts | 226° |
| 2026-04-30 20:20 | 40.84838 | -74.06796 | 440 ft | 169 kts | 224° |
| 2026-04-30 20:20 | 40.84050 | -74.07976 | 1520 ft | 178 kts | 226° |
| 2026-04-30 20:20 | 40.83256 | -74.09234 | 2542 ft | 190 kts | 227° |
| 2026-04-30 20:21 | 40.82426 | -74.10578 | 3014 ft | 186 kts | 233° |
| 2026-04-30 20:21 | 40.82154 | -74.12243 | 3485 ft | 195 kts | 275° |
| 2026-04-30 20:21 | 40.82827 | -74.13816 | 4020 ft | 202 kts | 314° |
| 2026-04-30 20:21 | 40.84081 | -74.14651 | 4648 ft | 211 kts | 344° |
| 2026-04-30 20:22 | 40.85543 | -74.15065 | 5330 ft | 224 kts | 348° |
| 2026-04-30 20:22 | 40.87109 | -74.15434 | 6071 ft | 232 kts | 348° |
| 2026-04-30 20:22 | 40.88703 | -74.15797 | 6815 ft | 242 kts | 348° |
| 2026-04-30 20:22 | 40.90496 | -74.15831 | 7561 ft | 275 kts | 13° |
| 2026-04-30 20:23 | 40.92168 | -74.14574 | 8311 ft | 288 kts | 46° |
| 2026-04-30 20:23 | 40.93422 | -74.12481 | 9056 ft | 292 kts | 54° |
| 2026-04-30 20:23 | 40.94635 | -74.10331 | 9810 ft | 293 kts | 53° |
| 2026-04-30 20:23 | 40.95870 | -74.08180 | 10568 ft | 295 kts | 53° |
| 2026-04-30 20:24 | 40.97120 | -74.06041 | 11315 ft | 298 kts | 53° |
| 2026-04-30 20:24 | 40.98416 | -74.03857 | 12056 ft | 312 kts | 52° |
| 2026-04-30 20:24 | 40.99816 | -74.01530 | 12682 ft | 326 kts | 52° |
| 2026-04-30 20:24 | 41.01239 | -73.99202 | 13303 ft | 330 kts | 52° |
| 2026-04-30 20:25 | 41.04198 | -73.94473 | 14569 ft | 335 kts | 51° |
| 2026-04-30 20:25 | 41.05710 | -73.92104 | 15199 ft | 340 kts | 50° |
| 2026-04-30 20:26 | 41.08872 | -73.87289 | 16460 ft | 352 kts | 49° |
| 2026-04-30 20:26 | 41.12307 | -73.82080 | 17066 ft | 402 kts | 49° |
| 2026-04-30 20:26 | 41.14196 | -73.79213 | 17138 ft | 415 kts | 48° |
| 2026-04-30 20:27 | 41.17994 | -73.73442 | 17146 ft | 412 kts | 49° |
| 2026-04-30 20:27 | 41.21828 | -73.67611 | 17135 ft | 429 kts | 49° |
| 2026-04-30 20:28 | 41.25804 | -73.61552 | 17141 ft | 431 kts | 49° |
| 2026-04-30 20:28 | 41.28780 | -73.54858 | 17147 ft | 421 kts | 73° |
| 2026-04-30 20:29 | 41.30275 | -73.47926 | 17144 ft | 418 kts | 75° |
| 2026-04-30 20:30 | 41.32286 | -73.38248 | 17145 ft | 417 kts | 74° |
| 2026-04-30 20:30 | 41.34602 | -73.27045 | 17305 ft | 424 kts | 70° |
| 2026-04-30 20:31 | 41.36985 | -73.15459 | 17197 ft | 428 kts | 74° |
| 2026-04-30 20:32 | 41.39288 | -73.04191 | 17123 ft | 415 kts | 76° |
| 2026-04-30 20:32 | 41.40797 | -72.96763 | 17132 ft | 414 kts | 76° |
| 2026-04-30 20:33 | 41.41544 | -72.93083 | 17130 ft | 413 kts | 76° |
| 2026-04-30 20:33 | 41.43034 | -72.85710 | 17129 ft | 412 kts | 76° |
| 2026-04-30 20:33 | 41.43781 | -72.82006 | 17134 ft | 412 kts | 76° |
| 2026-04-30 20:34 | 41.45264 | -72.74631 | 17132 ft | 411 kts | 76° |
| 2026-04-30 20:34 | 41.46770 | -72.67295 | 17201 ft | 410 kts | 76° |
| 2026-04-30 20:35 | 41.47522 | -72.63633 | 17253 ft | 410 kts | 76° |
| 2026-04-30 20:35 | 41.48269 | -72.59933 | 17332 ft | 411 kts | 76° |